Drummond Island, MI

3:01 AM EST on December 26, 2014 (GMT -0500)
Potagannissing Bay Front | Change Station
CLOSE
Current Station
Personal Weather Station
Location: Drummond Island, MI
Elevation: 587 ft
Nearby Weather Stations

Elev 587 ft 46.06 °N, 83.67 °W | Updated 9 seconds ago

Overcast
Overcast
34.2 °F
Feels Like 30 °F
N
5.0
Wind Variable Wind from SW
Gusts 10.0 mph

Today
High -- | Low -- °F
--% Chance of Precip.
Yesterday
High -- | Low -- °F
Precip. -- in
8:15 AM 4:55 PM
Waxing Crescent, 23% visible
Pressure 29.99 in
Visibility 2.5 miles
Clouds Overcast 500 ft
Windchill 30 °F
Dew Point 33 °F
Humidity 97%
Rainfall 0.02 in
Snow Depth Not available.
UV 0 out of 12
Pollen .10 out of 12
Air Quality Not available.
Flu Activity Not available.
METAR KDRM 260755Z AUTO 23004KT 2 1/2SM BR OVC005 01/01 A2999 RMK AO2 T00110011

More Conditions Fewer Conditions

Pressure 29.99 in
Visibility 2.5 miles
Clouds Overcast 500 ft
Windchill 30 °F
Dew Point 33 °F
Humidity 97%
Rainfall 0.02 in
Snow Depth Not available.
UV 0 out of 12
Pollen .10 out of 12
Air Quality Not available.
Flu Activity Not available.
METAR KDRM 260755Z AUTO 23004KT 2 1/2SM BR OVC005 01/01 A2999 RMK AO2 T00110011

More Conditions Fewer Conditions

Nowcast | as of 2:00 am EST on December 26, 2014

At 3 am...cloudy...flurries. Temperature 31. Southwest winds 5 mph. At 5 am...cloudy...flurries. Temperature 31. Light winds. At 7 am...cloudy. Periods of flurries. Temperature 31. Light winds. At 9 am...cloudy. Periods of flurries. Temperature 32. Light winds.

×

10-Day Weather Forecast

Almanac

Astronomy

Dec. 26, 2014 Rise Set
Actual Time
Civil Twilight
Nautical Twilight
Astronomical Twilight
Moon
Length of Visible Light
Length of Day
Tomorrow will be .
, % of the Moon is Illuminated

Today's Extremes

State Highs State Lows

Community

WunderPhotos

Upload Photos

1,780,571 photos uploaded!

WunderBlogs® & News

Nearby

Air Quality

  Air Quality AQ Index Pollutant
Not available.

Snow Depth

Station Depth Elevation

Earthquake Activity

City Distance Mag. Time & Date
Minimum magnitude displayed is 2.5.

Coastal Water Temperatures

Place Temperature

Nearby Weather Stations